East Millbury, Massachusetts
Current Conditions -  °F | °C
As of 5:54 AM on Friday 24 Oct 2014 (Local Time) from KORH Reporting Station
Light Rain Light Rain  
Wind Chill: 41°   Ceiling: 7000
Heat Index: 46°   Visibility: 10mi
Dew Point: 44°   Wind: 10mph
Humidity: 93%   Direction: 320°NW
Pressure: 29.7"   Gusts: NA
Location:  42.1926°N, 71.7739°W
Report Text: KORH 240954Z AUTO 32009KT 10SM -RA FEW008 OVC070 08/07 A2970 RMK AO2 SLP060 P0003 T00780067
Loading
Personal Weather Stations






























Interactive Weather Map
Tropical Storm Tracking
New forecast layout! Learn more

10-Day Weather Forecast

Advertisements
Track Severe Weather on mobile